createdAt,value
2018-04-15T00:00:47.225Z,12.8
2018-04-15T00:02:09.579Z,12.9
2018-04-15T00:03:29.469Z,12.8
2018-04-15T00:04:49.301Z,12.9
2018-04-15T00:06:19.249Z,13
2018-04-15T00:07:44.151Z,12.8
2018-04-15T00:09:03.995Z,12.9
2018-04-15T00:10:23.841Z,12.8
2018-04-15T00:11:48.774Z,12.9
2018-04-15T00:13:11.189Z,12.9
2018-04-15T00:14:31.027Z,12.9
2018-04-15T00:15:55.937Z,12.9
2018-04-15T00:17:15.834Z,12.8
2018-04-15T00:18:35.696Z,12.7
2018-04-15T00:19:58.052Z,12.7
2018-04-15T00:21:17.927Z,12.8
2018-04-15T00:22:37.755Z,12.8
2018-04-15T00:23:57.632Z,12.9
2018-04-15T00:25:22.519Z,12.8
2018-04-15T00:26:44.877Z,12.9
2018-04-15T00:28:04.721Z,12.8
2018-04-15T00:29:39.774Z,12.8
2018-04-15T00:30:59.655Z,12.8
2018-04-15T00:32:22.004Z,12.9
2018-04-15T00:33:44.371Z,12.8
2018-04-15T00:35:06.719Z,12.8
2018-04-15T00:36:26.598Z,12.8
2018-04-15T00:37:51.476Z,12.9
2018-04-15T00:39:13.851Z,12.8
2018-04-15T00:40:36.198Z,12.7
2018-04-15T00:41:58.555Z,12.8
2018-04-15T00:43:18.432Z,12.8
2018-04-15T00:44:43.376Z,12.7
2018-04-15T00:46:03.282Z,12.8
2018-04-15T00:47:28.229Z,12.8
2018-04-15T00:48:58.218Z,12.8
2018-04-15T00:50:18.049Z,12.8
2018-04-15T00:51:45.504Z,12.8
2018-04-15T00:53:15.469Z,12.9
2018-04-15T00:54:47.960Z,12.7
2018-04-15T00:56:12.836Z,12.6
2018-04-15T00:57:35.267Z,13.3
2018-04-15T00:58:55.122Z,13.2
2018-04-15T01:00:14.994Z,13.2
2018-04-15T01:01:34.893Z,13.3
2018-04-15T01:02:59.837Z,13.2
2018-04-15T01:04:19.673Z,13.2
2018-04-15T01:05:42.136Z,13.3
2018-04-15T01:07:01.964Z,13.2
2018-04-15T01:08:24.310Z,13.3
2018-04-15T01:09:46.671Z,13.2
2018-04-15T01:11:09.027Z,13.2
2018-04-15T01:12:31.407Z,13.2
2018-04-15T01:13:53.772Z,13.2
2018-04-15T01:15:16.148Z,13.1
2018-04-15T01:16:38.514Z,13.2
2018-04-15T01:18:00.877Z,12.6
2018-04-15T01:19:20.731Z,12.6
2018-04-15T01:20:45.647Z,12.6
2018-04-15T01:22:13.106Z,12.6
2018-04-15T01:23:32.979Z,12.6
2018-04-15T01:24:55.387Z,13.1
2018-04-15T01:26:15.242Z,13.1
2018-04-15T01:27:37.597Z,13.1
2018-04-15T01:28:57.428Z,12.7
2018-04-15T01:30:19.815Z,13
2018-04-15T01:31:39.669Z,12.9
2018-04-15T01:32:59.514Z,12.9
2018-04-15T01:34:19.408Z,13
2018-04-15T01:35:39.243Z,12.6
2018-04-15T01:37:01.654Z,12.5
2018-04-15T01:38:26.535Z,13.1
2018-04-15T01:39:46.399Z,13
2018-04-15T01:41:13.849Z,13
2018-04-15T01:42:33.674Z,12.5
2018-04-15T01:43:53.499Z,12.8
2018-04-15T01:45:15.848Z,12.8
2018-04-15T01:46:35.679Z,12.9
2018-04-15T01:47:58.084Z,12.7
2018-04-15T01:49:20.472Z,12.3
2018-04-15T01:50:42.826Z,12.3
2018-04-15T01:52:15.345Z,12.3
2018-04-15T01:53:35.244Z,12.3
2018-04-15T01:54:55.142Z,12.9
2018-04-15T01:56:20.118Z,12.4
2018-04-15T01:57:39.969Z,12.4
2018-04-15T01:59:07.450Z,12.5
2018-04-15T02:00:27.280Z,12.4
2018-04-15T02:01:47.164Z,12.4
2018-04-15T02:03:06.985Z,12.4
2018-04-15T02:04:29.327Z,12.5
2018-04-15T02:05:49.195Z,12.4
2018-04-15T02:07:09.017Z,12.4
2018-04-15T02:08:33.965Z,12.4
2018-04-15T02:09:58.873Z,12.3
2018-04-15T02:11:18.705Z,12.3
2018-04-15T02:12:41.051Z,12.3
2018-04-15T02:14:00.879Z,12.3
2018-04-15T02:15:25.762Z,12.2
2018-04-15T02:16:45.582Z,12.2
2018-04-15T02:18:05.443Z,12.3
2018-04-15T02:19:25.324Z,12.4
2018-04-15T02:20:47.727Z,12.4
2018-04-15T02:22:10.154Z,12.4
2018-04-15T02:23:30.018Z,12.4
2018-04-15T02:24:52.400Z,12.4
2018-04-15T02:26:14.784Z,12.3
2018-04-15T02:27:37.143Z,12.4
2018-04-15T02:29:04.616Z,12.4
2018-04-15T02:30:24.482Z,12.4
2018-04-15T02:31:44.340Z,12.9
2018-04-15T02:33:06.757Z,12.4
2018-04-15T02:34:26.637Z,12.3
2018-04-15T02:35:46.467Z,12.3
2018-04-15T02:37:08.874Z,12.3
2018-04-15T02:38:33.761Z,12.4
2018-04-15T02:39:53.639Z,12.5
2018-04-15T02:41:18.582Z,12.9
2018-04-15T02:42:40.932Z,12.9
2018-04-15T02:44:00.813Z,12.9
2018-04-15T02:45:25.706Z,13
2018-04-15T02:46:45.581Z,12.8
2018-04-15T02:48:05.419Z,13
2018-04-15T02:49:27.777Z,13
2018-04-15T02:50:47.620Z,12.9
2018-04-15T02:52:12.516Z,12.8
2018-04-15T02:53:34.949Z,12.8
2018-04-15T02:54:54.792Z,12.8
2018-04-15T02:56:17.148Z,12.8
2018-04-15T02:57:36.977Z,12.3
2018-04-15T02:58:56.806Z,12.3
2018-04-15T03:00:19.188Z,12.4
2018-04-15T03:01:39.133Z,12.3
2018-04-15T03:02:58.989Z,12.3
2018-04-15T03:04:18.832Z,12.2
2018-04-15T03:05:46.275Z,11.9
2018-04-15T03:07:08.635Z,12.3
2018-04-15T03:08:36.057Z,12.2
2018-04-15T03:10:11.106Z,12.2
2018-04-15T03:11:30.980Z,12.3
2018-04-15T03:12:50.806Z,12.2
2018-04-15T03:14:10.631Z,12.2
2018-04-15T03:15:30.452Z,12.1
2018-04-15T03:16:52.842Z,12.2
2018-04-15T03:18:12.662Z,12.9
2018-04-15T03:19:35.092Z,12.9
2018-04-15T03:20:57.447Z,12.8
2018-04-15T03:22:17.334Z,12.8
2018-04-15T03:23:37.169Z,12.7
2018-04-15T03:24:57.002Z,12.8
2018-04-15T03:26:16.895Z,12.8
2018-04-15T03:27:41.791Z,12.9
2018-04-15T03:29:06.714Z,12.9
2018-04-15T03:30:36.683Z,12.9
2018-04-15T03:31:56.529Z,12.9
2018-04-15T03:33:16.401Z,12.9
2018-04-15T03:34:38.758Z,12.9
2018-04-15T03:35:58.588Z,12.8
2018-04-15T03:37:20.948Z,12.7
2018-04-15T03:38:40.803Z,12.3
2018-04-15T03:40:00.673Z,12.1
2018-04-15T03:41:38.206Z,12.1
2018-04-15T03:42:58.038Z,12.2
2018-04-15T03:44:17.910Z,12.2
2018-04-15T03:45:45.323Z,12.2
2018-04-15T03:47:05.155Z,12.1
2018-04-15T03:48:27.555Z,12.3
2018-04-15T03:49:47.379Z,12.3
2018-04-15T03:51:09.821Z,12.2
2018-04-15T03:52:29.670Z,12.1
2018-04-15T03:54:12.304Z,12.2
2018-04-15T03:55:34.688Z,12.3
2018-04-15T03:56:57.093Z,12.2
2018-04-15T03:58:24.591Z,12.2
2018-04-15T03:59:44.516Z,12.3
2018-04-15T04:01:04.370Z,12
2018-04-15T04:02:24.263Z,12.1
2018-04-15T04:03:44.154Z,12
2018-04-15T04:05:04.045Z,12.1
2018-04-15T04:06:23.872Z,12.2
2018-04-15T04:07:46.276Z,12.2
2018-04-15T04:09:08.656Z,12.1
2018-04-15T04:10:28.483Z,12.1
2018-04-15T04:11:53.429Z,12.1
2018-04-15T04:13:13.261Z,12.1
2018-04-15T04:14:38.146Z,12.2
2018-04-15T04:16:08.085Z,12.2
2018-04-15T04:17:30.437Z,12.2
2018-04-15T04:18:50.318Z,12.2
2018-04-15T04:20:15.218Z,12.2
2018-04-15T04:21:35.091Z,12.2
2018-04-15T04:22:54.968Z,11.8
2018-04-15T04:24:17.371Z,11.6
2018-04-15T04:25:39.758Z,11.6
2018-04-15T04:26:59.604Z,11.7
2018-04-15T04:28:19.459Z,12.2
2018-04-15T04:29:41.846Z,12.1
2018-04-15T04:31:04.283Z,11.9
2018-04-15T04:32:24.138Z,12
2018-04-15T04:33:44.026Z,11.9
2018-04-15T04:35:06.398Z,12.1
2018-04-15T04:36:26.249Z,12.1
2018-04-15T04:37:46.081Z,12.1
2018-04-15T04:39:05.899Z,12.2
2018-04-15T04:40:25.728Z,12.2
2018-04-15T04:41:45.596Z,12.1
2018-04-15T04:43:15.559Z,12.1
2018-04-15T04:44:35.386Z,12.1
2018-04-15T04:46:00.263Z,12.1
2018-04-15T04:47:25.197Z,12.1
2018-04-15T04:48:45.029Z,12.1
2018-04-15T04:50:04.862Z,12.1
2018-04-15T04:51:24.712Z,12.2
2018-04-15T04:52:44.596Z,12.1
2018-04-15T04:54:06.973Z,12.1
2018-04-15T04:55:31.856Z,12
2018-04-15T04:56:56.743Z,12.1
2018-04-15T04:58:16.564Z,12.1
2018-04-15T04:59:36.393Z,12.1
2018-04-15T05:00:56.250Z,12.1
2018-04-15T05:02:18.625Z,11.9
2018-04-15T05:03:46.074Z,12
2018-04-15T05:05:08.425Z,12
2018-04-15T05:06:28.294Z,11.9
2018-04-15T05:07:48.175Z,11.9
2018-04-15T05:09:07.996Z,11.9
2018-04-15T05:10:30.405Z,12
2018-04-15T05:11:50.276Z,12
2018-04-15T05:13:12.633Z,12
2018-04-15T05:14:37.523Z,12
2018-04-15T05:15:57.390Z,11.9
2018-04-15T05:17:17.259Z,12.1
2018-04-15T05:18:39.645Z,12.2
2018-04-15T05:19:59.553Z,12.1
2018-04-15T05:21:27.015Z,12.1
2018-04-15T05:22:49.401Z,12.1
2018-04-15T05:24:19.411Z,12.2
2018-04-15T05:25:39.268Z,12.2
2018-04-15T05:27:01.618Z,12.2
2018-04-15T05:28:21.453Z,12.3
2018-04-15T05:29:41.311Z,12.1
2018-04-15T05:31:08.746Z,12.2
2018-04-15T05:32:38.693Z,12.2
2018-04-15T05:34:01.052Z,12.2
2018-04-15T05:35:23.408Z,12.1
2018-04-15T05:36:43.229Z,12.3
2018-04-15T05:38:03.055Z,12.2
2018-04-15T05:39:22.931Z,12.2
2018-04-15T05:40:52.894Z,12.1
2018-04-15T05:42:12.764Z,12.2
2018-04-15T05:43:32.594Z,12.2
2018-04-15T05:44:52.479Z,12.2
2018-04-15T05:46:12.304Z,12.2
2018-04-15T05:47:34.724Z,12.3
2018-04-15T05:48:54.614Z,12.3
2018-04-15T05:50:27.154Z,12.2
2018-04-15T05:51:57.108Z,12.2
2018-04-15T05:53:16.935Z,12.3
2018-04-15T05:54:36.762Z,12.1
2018-04-15T05:56:04.255Z,12.3
2018-04-15T05:57:24.120Z,12.4
2018-04-15T05:58:46.476Z,12.4
2018-04-15T06:00:08.889Z,12.4
2018-04-15T06:01:28.735Z,12.2
2018-04-15T06:02:48.580Z,12.5
2018-04-15T06:04:21.058Z,12.5
2018-04-15T06:05:45.964Z,12.5
2018-04-15T06:07:15.962Z,12.6
2018-04-15T06:08:35.813Z,12.6
2018-04-15T06:09:55.679Z,12.8
2018-04-15T06:11:15.511Z,12.8
2018-04-15T06:12:35.334Z,12.7
2018-04-15T06:13:57.732Z,12.7
2018-04-15T06:15:17.605Z,12.6
2018-04-15T06:16:39.974Z,12.5
2018-04-15T06:18:02.327Z,12.5
2018-04-15T06:19:22.196Z,12.7
2018-04-15T06:20:42.025Z,12.5
2018-04-15T06:22:01.915Z,12.6
2018-04-15T06:23:42.002Z,12.6
2018-04-15T06:25:01.832Z,12.7
2018-04-15T06:26:26.725Z,12.6
2018-04-15T06:27:49.143Z,12.6
2018-04-15T06:29:08.995Z,12.6
2018-04-15T06:30:28.884Z,12.5
2018-04-15T06:31:53.787Z,12.5
2018-04-15T06:33:21.195Z,12.6
2018-04-15T06:34:41.017Z,12.7
2018-04-15T06:36:05.953Z,12.7
2018-04-15T06:37:28.332Z,12.8
2018-04-15T06:38:50.749Z,12.8
2018-04-15T06:40:10.628Z,12.8
2018-04-15T06:41:32.988Z,12.9
2018-04-15T06:42:52.839Z,13
2018-04-15T06:44:15.248Z,13.1
2018-04-15T06:45:40.158Z,13
2018-04-15T06:46:59.998Z,12.9
2018-04-15T06:48:22.354Z,12.9
2018-04-15T06:49:42.221Z,13
2018-04-15T06:51:02.043Z,13
2018-04-15T06:52:26.981Z,13
2018-04-15T06:53:49.343Z,12.8
2018-04-15T06:55:09.204Z,13
2018-04-15T06:56:29.090Z,13
2018-04-15T06:57:54.023Z,12.8
2018-04-15T06:59:13.927Z,12.8
2018-04-15T07:00:33.791Z,13.3
2018-04-15T07:01:53.701Z,13.1
2018-04-15T07:03:13.557Z,13.6
2018-04-15T07:04:48.625Z,13.7
2018-04-15T07:06:08.476Z,13.7
2018-04-15T07:07:30.823Z,13.7
2018-04-15T07:08:53.227Z,13.3
2018-04-15T07:10:13.080Z,13.4
2018-04-15T07:11:32.970Z,13.4
2018-04-15T07:12:52.799Z,13.5
2018-04-15T07:14:20.244Z,13.3
2018-04-15T07:15:40.066Z,13.3
2018-04-15T07:17:02.490Z,13.4
2018-04-15T07:18:24.899Z,13.6
2018-04-15T07:19:57.444Z,13.8
2018-04-15T07:21:22.332Z,14
2018-04-15T07:22:49.808Z,14.3
2018-04-15T07:24:09.668Z,14.5
2018-04-15T07:25:29.496Z,14.6
2018-04-15T07:26:49.326Z,14.7
2018-04-15T07:28:09.181Z,14.9
2018-04-15T07:29:36.615Z,15.1
2018-04-15T07:30:56.449Z,15.4
2018-04-15T07:32:23.920Z,15.7
2018-04-15T07:33:43.871Z,15.8
2018-04-15T07:35:03.750Z,16.1
2018-04-15T07:36:23.698Z,16
2018-04-15T07:37:46.057Z,16.3
2018-04-15T07:39:08.443Z,16.5
2018-04-15T07:40:28.333Z,16.7
2018-04-15T07:41:48.239Z,16.6
2018-04-15T07:43:13.134Z,16.7
2018-04-15T07:44:38.028Z,16.5
2018-04-15T07:46:00.444Z,16.7
2018-04-15T07:47:25.326Z,16.8
2018-04-15T07:48:45.186Z,16.5
2018-04-15T07:50:07.613Z,16.6
2018-04-15T07:51:29.981Z,16.5
2018-04-15T07:52:49.812Z,16.3
2018-04-15T07:54:09.650Z,16.4
2018-04-15T07:55:42.129Z,15.9
2018-04-15T07:57:01.957Z,15.7
2018-04-15T07:58:29.379Z,15.5
2018-04-15T07:59:49.217Z,15.4
2018-04-15T08:01:11.586Z,15.3
2018-04-15T08:02:31.474Z,15.2
2018-04-15T08:03:51.296Z,15
2018-04-15T08:05:11.126Z,15.1
2018-04-15T08:06:33.555Z,14.9
2018-04-15T08:08:11.102Z,15.3
2018-04-15T08:09:30.972Z,15.3
2018-04-15T08:10:50.814Z,15.3
2018-04-15T08:12:13.190Z,15.2
2018-04-15T08:13:38.085Z,15.2
2018-04-15T08:15:00.437Z,15.3
2018-04-15T08:16:25.333Z,15.4
2018-04-15T08:17:47.683Z,15.4
2018-04-15T08:19:07.560Z,15.2
2018-04-15T08:20:27.455Z,15.1
2018-04-15T08:21:54.886Z,15.2
2018-04-15T08:23:17.241Z,15.3
2018-04-15T08:24:37.071Z,14.9
2018-04-15T08:25:59.428Z,15
2018-04-15T08:27:26.906Z,14.9
2018-04-15T08:28:46.760Z,15.1
2018-04-15T08:30:06.581Z,15.1
2018-04-15T08:31:26.410Z,15.1
2018-04-15T08:32:48.791Z,15.2
2018-04-15T08:34:08.680Z,15.2
2018-04-15T08:35:28.571Z,15.1
2018-04-15T08:36:48.433Z,15.1
2018-04-15T08:38:10.846Z,15.1
2018-04-15T08:39:33.260Z,15.2
2018-04-15T08:41:08.357Z,15.2
2018-04-15T08:42:38.405Z,15.2
2018-04-15T08:44:03.329Z,15.2
2018-04-15T08:45:25.732Z,15.3
2018-04-15T08:46:55.678Z,15.4
2018-04-15T08:48:15.514Z,15.4
2018-04-15T08:49:40.450Z,15.4
2018-04-15T08:51:10.445Z,15.4
2018-04-15T08:52:30.286Z,15.5
2018-04-15T08:53:52.662Z,15.4
2018-04-15T08:55:15.091Z,15.4
2018-04-15T08:56:34.917Z,15.4
2018-04-15T08:58:02.336Z,15.3
2018-04-15T08:59:22.172Z,15.3
2018-04-15T09:00:42.049Z,15.3
2018-04-15T09:02:01.885Z,15.4
2018-04-15T09:03:26.812Z,15.4
2018-04-15T09:04:46.674Z,15.4
2018-04-15T09:06:09.076Z,15.4
2018-04-15T09:07:28.951Z,15.3
2018-04-15T09:08:48.802Z,15.4
2018-04-15T09:10:11.172Z,15.4
2018-04-15T09:11:36.063Z,15.3
2018-04-15T09:12:55.891Z,15.3
2018-04-15T09:14:15.769Z,15.3
2018-04-15T09:15:35.605Z,15.3
2018-04-15T09:16:55.463Z,15.4
2018-04-15T09:18:20.377Z,15.9
2018-04-15T09:19:45.259Z,15.4
2018-04-15T09:21:05.116Z,15.4
2018-04-15T09:22:27.497Z,15.4
2018-04-15T09:23:49.855Z,15.4
2018-04-15T09:25:14.745Z,15.5
2018-04-15T09:26:34.566Z,15.5
2018-04-15T09:27:56.989Z,15.4
2018-04-15T09:29:16.812Z,15.4
2018-04-15T09:30:41.720Z,15.4
2018-04-15T09:32:01.557Z,15.5
2018-04-15T09:33:21.403Z,15.5
2018-04-15T09:34:46.300Z,15.4
2018-04-15T09:36:08.676Z,15.5
2018-04-15T09:37:28.559Z,15.9
2018-04-15T09:38:53.488Z,15.8
2018-04-15T09:40:13.392Z,15.7
2018-04-15T09:41:33.245Z,15.9
2018-04-15T09:42:53.136Z,15.8
2018-04-15T09:44:25.604Z,15.8
2018-04-15T09:45:45.433Z,15.9
2018-04-15T09:47:05.317Z,15.8
2018-04-15T09:48:30.222Z,15.8
2018-04-15T09:49:50.071Z,15.8
2018-04-15T09:51:17.495Z,15.8
2018-04-15T09:52:37.412Z,15.8
2018-04-15T09:53:57.383Z,15.8
2018-04-15T09:55:19.800Z,15.8
2018-04-15T09:56:39.685Z,15.8
2018-04-15T09:57:59.506Z,15.8
2018-04-15T09:59:21.878Z,15.7
2018-04-15T10:00:41.705Z,15.7
2018-04-15T10:02:04.066Z,15.8
2018-04-15T10:03:28.950Z,15.8
2018-04-15T10:04:48.809Z,15.8
2018-04-15T10:06:08.668Z,15.8
2018-04-15T10:07:31.031Z,15.8
2018-04-15T10:09:06.059Z,15.9
2018-04-15T10:10:25.937Z,15.9
2018-04-15T10:11:48.329Z,15.9
2018-04-15T10:13:08.187Z,15.8
2018-04-15T10:14:28.066Z,15.8
2018-04-15T10:15:55.480Z,15.8
2018-04-15T10:17:15.332Z,15.9
2018-04-15T10:18:37.706Z,16
2018-04-15T10:19:57.551Z,16
2018-04-15T10:21:19.916Z,16
2018-04-15T10:22:39.747Z,16
2018-04-15T10:23:59.630Z,16.1
2018-04-15T10:25:21.999Z,16
2018-04-15T10:26:41.846Z,16
2018-04-15T10:28:06.725Z,15.9
2018-04-15T10:29:29.137Z,15.9
2018-04-15T10:30:48.964Z,16
2018-04-15T10:32:13.880Z,16
2018-04-15T10:33:38.790Z,16
2018-04-15T10:34:58.613Z,16
2018-04-15T10:36:18.451Z,16
2018-04-15T10:37:38.320Z,15.9
2018-04-15T10:39:00.702Z,15.9
2018-04-15T10:40:23.161Z,15.8
2018-04-15T10:41:43.011Z,15.7
2018-04-15T10:43:02.861Z,15.9
2018-04-15T10:44:27.774Z,15.9
2018-04-15T10:45:47.628Z,16
2018-04-15T10:47:12.552Z,16
2018-04-15T10:48:32.399Z,16.1
2018-04-15T10:49:54.757Z,16
2018-04-15T10:51:14.590Z,16
2018-04-15T10:52:39.510Z,16
2018-04-15T10:53:59.341Z,15.9
2018-04-15T10:55:19.173Z,15.9
2018-04-15T10:56:44.100Z,16.5
2018-04-15T10:58:14.064Z,16.5
2018-04-15T10:59:36.424Z,16.4
2018-04-15T11:00:56.298Z,16.4
2018-04-15T11:02:18.710Z,16.4
2018-04-15T11:03:46.149Z,16.5
2018-04-15T11:05:06.017Z,16.5
2018-04-15T11:06:38.510Z,16.5
2018-04-15T11:08:00.866Z,16.5
2018-04-15T11:09:20.745Z,16.5
2018-04-15T11:10:43.179Z,16.6
2018-04-15T11:12:05.534Z,16.3
2018-04-15T11:13:30.449Z,16.3
2018-04-15T11:14:52.862Z,16.3
2018-04-15T11:16:17.772Z,16.3
2018-04-15T11:17:40.127Z,16.3
2018-04-15T11:18:59.970Z,16.5
2018-04-15T11:20:24.906Z,16.4
2018-04-15T11:21:44.737Z,16.4
2018-04-15T11:23:04.620Z,16.5
2018-04-15T11:24:24.444Z,16.5
2018-04-15T11:25:44.281Z,16.5
2018-04-15T11:27:11.744Z,16.5
2018-04-15T11:28:31.573Z,16.7
2018-04-15T11:29:56.485Z,16.8
2018-04-15T11:31:23.918Z,16.7
2018-04-15T11:32:51.406Z,16.7
2018-04-15T11:34:11.237Z,16.7
2018-04-15T11:35:33.687Z,16.8
2018-04-15T11:36:58.569Z,16.8
2018-04-15T11:38:18.449Z,16.8
2018-04-15T11:39:38.346Z,16.8
2018-04-15T11:40:58.199Z,16.7
2018-04-15T11:42:20.595Z,16.7
2018-04-15T11:43:40.425Z,16.7
2018-04-15T11:45:00.277Z,16.8
2018-04-15T11:46:27.726Z,16.8
2018-04-15T11:47:47.575Z,16.9
2018-04-15T11:49:07.474Z,16.9
2018-04-15T11:50:32.408Z,16.9
2018-04-15T11:51:52.315Z,16.9
2018-04-15T11:53:17.223Z,16.9
2018-04-15T11:54:37.087Z,17
2018-04-15T11:55:56.921Z,16.9
2018-04-15T11:57:19.351Z,17
2018-04-15T11:58:39.176Z,17
2018-04-15T12:00:01.539Z,17.1
2018-04-15T12:01:21.372Z,17.1
2018-04-15T12:02:41.234Z,17.1
2018-04-15T12:04:01.069Z,17.2
2018-04-15T12:05:25.976Z,17.1
2018-04-15T12:06:50.883Z,17.2
2018-04-15T12:08:10.717Z,17.2
2018-04-15T12:09:30.558Z,17.2
2018-04-15T12:10:55.453Z,17.2
2018-04-15T12:12:15.297Z,17.3
2018-04-15T12:13:35.120Z,17.3
2018-04-15T12:15:07.627Z,17.4
2018-04-15T12:16:30.015Z,17.5
2018-04-15T12:17:52.408Z,17.7
2018-04-15T12:19:12.281Z,17.8
2018-04-15T12:20:32.190Z,17.8
2018-04-15T12:22:09.734Z,17.8
2018-04-15T12:23:29.599Z,17.8
2018-04-15T12:24:49.459Z,17.9
2018-04-15T12:26:09.343Z,17.9
2018-04-15T12:27:29.218Z,18
2018-04-15T12:28:49.120Z,18
2018-04-15T12:30:11.521Z,18.1
2018-04-15T12:31:36.423Z,18.1
2018-04-15T12:32:58.800Z,18.1
2018-04-15T12:34:18.642Z,18.1
2018-04-15T12:35:38.478Z,18.1
2018-04-15T12:37:00.937Z,18.1
2018-04-15T12:38:25.834Z,18.1
2018-04-15T12:39:50.745Z,18.1
2018-04-15T12:41:13.156Z,18
2018-04-15T12:42:35.522Z,18.1
2018-04-15T12:44:05.549Z,18.3
2018-04-15T12:45:25.388Z,18.3
2018-04-15T12:46:47.776Z,18.2
2018-04-15T12:48:07.686Z,18.2
2018-04-15T12:49:27.547Z,18.2
2018-04-15T12:50:47.401Z,18.2
2018-04-15T12:52:12.328Z,18.3
2018-04-15T12:53:34.768Z,18.2
2018-04-15T12:54:54.626Z,18.3
2018-04-15T12:56:14.470Z,18.2
2018-04-15T12:57:34.298Z,18.2
2018-04-15T12:58:54.146Z,18.3
2018-04-15T13:00:16.542Z,18.1
2018-04-15T13:01:36.372Z,18
2018-04-15T13:02:58.772Z,18.1
2018-04-15T13:04:23.654Z,18.3
2018-04-15T13:05:43.511Z,18.4
2018-04-15T13:07:03.382Z,18.4
2018-04-15T13:08:23.242Z,18.4
2018-04-15T13:09:43.084Z,18.2
2018-04-15T13:11:05.450Z,18.4
2018-04-15T13:12:25.271Z,18.5
2018-04-15T13:13:50.166Z,18.4
2018-04-15T13:15:09.990Z,18.4
2018-04-15T13:16:29.837Z,18.5
2018-04-15T13:17:49.667Z,18.6
2018-04-15T13:19:09.504Z,18.7
2018-04-15T13:20:29.379Z,18.8
2018-04-15T13:22:01.887Z,18.8
2018-04-15T13:23:21.732Z,18.8
2018-04-15T13:24:41.608Z,18.8
2018-04-15T13:26:04.038Z,18.7
2018-04-15T13:27:26.394Z,18.7
2018-04-15T13:28:46.283Z,18.8
2018-04-15T13:30:11.204Z,18.8
2018-04-15T13:31:33.568Z,18.8
2018-04-15T13:33:06.106Z,18.8
2018-04-15T13:34:28.492Z,18.9
2018-04-15T13:35:50.862Z,18.9
2018-04-15T13:37:10.689Z,18.8
2018-04-15T13:38:30.520Z,18.8
2018-04-15T13:39:50.346Z,18.8
2018-04-15T13:41:10.173Z,18.9
2018-04-15T13:42:30.027Z,18.9
2018-04-15T13:43:52.430Z,18.9
2018-04-15T13:45:17.338Z,19
2018-04-15T13:46:37.194Z,19
2018-04-15T13:47:57.085Z,19
2018-04-15T13:49:19.495Z,19
2018-04-15T13:50:39.364Z,19.1
2018-04-15T13:51:59.193Z,19.1
2018-04-15T13:53:21.546Z,19.2
2018-04-15T13:54:43.944Z,19.1
2018-04-15T13:56:03.771Z,19.2
2018-04-15T13:57:23.640Z,19.2
2018-04-15T13:58:43.482Z,19.2
2018-04-15T14:00:03.316Z,19.3
2018-04-15T14:01:23.152Z,19.4
2018-04-15T14:02:42.975Z,19.4
2018-04-15T14:04:02.856Z,19.4
2018-04-15T14:05:22.699Z,19.4
2018-04-15T14:06:50.124Z,19.4
2018-04-15T14:08:12.514Z,19.2
2018-04-15T14:09:34.870Z,19.5
2018-04-15T14:10:54.706Z,19.6
2018-04-15T14:12:19.638Z,19.6
2018-04-15T14:13:44.572Z,19.7
2018-04-15T14:15:07.005Z,19.8
2018-04-15T14:16:26.867Z,19.8
2018-04-15T14:17:49.270Z,19.9
2018-04-15T14:19:11.658Z,19.9
2018-04-15T14:20:34.005Z,19.9
2018-04-15T14:22:03.943Z,19.7
2018-04-15T14:23:26.342Z,19.5
2018-04-15T14:24:46.220Z,19
2018-04-15T14:26:06.041Z,19
2018-04-15T14:27:30.920Z,19
2018-04-15T14:28:53.279Z,19
2018-04-15T14:30:13.158Z,19.1
2018-04-15T14:31:40.573Z,19.7
2018-04-15T14:33:00.402Z,19.5
2018-04-15T14:34:25.303Z,19.6
2018-04-15T14:35:47.686Z,19.6
2018-04-15T14:37:07.525Z,19.6
2018-04-15T14:38:27.376Z,19.6
2018-04-15T14:39:52.282Z,19.7
2018-04-15T14:41:12.141Z,19.6
2018-04-15T14:42:32.020Z,19.6
2018-04-15T14:43:54.367Z,19.6
2018-04-15T14:45:14.199Z,19.6
2018-04-15T14:46:34.075Z,19.6
2018-04-15T14:47:53.932Z,19.6
2018-04-15T14:49:16.324Z,19.6
2018-04-15T14:50:38.714Z,19.7
2018-04-15T14:51:58.571Z,20.1
2018-04-15T14:53:18.427Z,19.2
2018-04-15T14:54:38.279Z,19.4
2018-04-15T14:55:58.109Z,19.4
2018-04-15T14:57:28.077Z,19.4
2018-04-15T14:59:57.862Z,19.2
2018-04-15T15:01:17.678Z,19.2
2018-04-15T15:02:37.549Z,17.1
2018-04-15T15:04:07.523Z,19.1
2018-04-15T15:05:34.985Z,19.1
2018-04-15T15:06:59.905Z,19.4
2018-04-15T15:08:19.726Z,19.5
2018-04-15T15:09:54.730Z,19.5
2018-04-15T15:11:19.611Z,19.6
2018-04-15T15:12:42.027Z,19.6
2018-04-15T15:14:01.917Z,19.7
2018-04-15T15:15:26.863Z,18.9
2018-04-15T15:16:46.723Z,19.6
2018-04-15T15:18:06.585Z,19.6
2018-04-15T15:19:26.489Z,19.8
2018-04-15T15:20:46.397Z,19.8
2018-04-15T15:22:06.232Z,19.8
2018-04-15T15:23:26.057Z,19.8
2018-04-15T15:24:56.092Z,19.8
2018-04-15T15:26:15.927Z,19.8
2018-04-15T15:27:35.750Z,19.8
2018-04-15T15:28:58.156Z,19.8
2018-04-15T15:30:17.986Z,19.8
2018-04-15T15:31:37.811Z,19.7
2018-04-15T15:33:00.177Z,19.8
2018-04-15T15:34:22.531Z,19.8
2018-04-15T15:35:42.409Z,20
2018-04-15T15:37:02.236Z,19.8
2018-04-15T15:38:24.598Z,19.8
2018-04-15T15:39:44.422Z,19.8
2018-04-15T15:41:06.806Z,19.8
2018-04-15T15:42:26.711Z,19.7
2018-04-15T15:43:46.583Z,19.7
2018-04-15T15:45:14.056Z,19.7
2018-04-15T15:46:33.879Z,19.6
2018-04-15T15:47:56.302Z,19.6
2018-04-15T15:49:21.194Z,19.6
2018-04-15T15:50:41.053Z,19.6
2018-04-15T15:52:00.917Z,19.5
2018-04-15T15:53:20.789Z,19.5
2018-04-15T15:54:40.616Z,19.4
2018-04-15T15:56:00.438Z,19.4
2018-04-15T15:57:32.904Z,19.4
2018-04-15T15:58:55.299Z,19.3
2018-04-15T16:00:15.246Z,19.3
2018-04-15T16:01:40.132Z,19.2
2018-04-15T16:02:59.986Z,19.2
2018-04-15T16:04:19.800Z,19.2
2018-04-15T16:05:52.266Z,19.1
2018-04-15T16:07:12.102Z,19.2
2018-04-15T16:08:42.113Z,19.2
2018-04-15T16:10:04.491Z,19.1
2018-04-15T16:11:31.954Z,19
2018-04-15T16:12:51.808Z,19
2018-04-15T16:14:11.663Z,19
2018-04-15T16:15:31.517Z,19
2018-04-15T16:16:51.455Z,19
2018-04-15T16:18:13.817Z,19
2018-04-15T16:19:36.228Z,18.9
2018-04-15T16:21:01.150Z,18.5
2018-04-15T16:22:21.045Z,18.8
2018-04-15T16:23:43.403Z,18.7
2018-04-15T16:25:03.228Z,18.8
2018-04-15T16:26:23.075Z,18.7
2018-04-15T16:27:45.444Z,18.7
2018-04-15T16:29:07.814Z,18.9
2018-04-15T16:30:27.693Z,19.3
2018-04-15T16:31:50.042Z,19.1
2018-04-15T16:33:09.860Z,19.5
2018-04-15T16:34:29.688Z,19.6
2018-04-15T16:35:54.664Z,19.6
2018-04-15T16:37:14.528Z,19.8
2018-04-15T16:38:39.416Z,19.9
2018-04-15T16:40:01.805Z,19.8
2018-04-15T16:41:21.653Z,19.8
2018-04-15T16:42:49.067Z,19.8
2018-04-15T16:44:11.499Z,19.7
2018-04-15T16:45:31.346Z,19.7
2018-04-15T16:46:51.192Z,19.7
2018-04-15T16:48:11.036Z,19.7
2018-04-15T16:49:35.978Z,19.7
2018-04-15T16:50:55.802Z,19.6
2018-04-15T16:52:15.772Z,19.4
2018-04-15T16:53:43.251Z,19.3
2018-04-15T16:55:05.593Z,19.3
2018-04-15T16:56:25.410Z,19.2
2018-04-15T16:57:45.273Z,19.5
2018-04-15T16:59:05.102Z,19.5
2018-04-15T17:00:30.039Z,19.5
2018-04-15T17:01:52.385Z,19.5
2018-04-15T17:03:14.737Z,19.4
2018-04-15T17:04:34.562Z,19.4
2018-04-15T17:05:54.384Z,19.4
2018-04-15T17:07:14.207Z,19.4
2018-04-15T17:08:41.647Z,19.3
2018-04-15T17:10:06.564Z,19.3
2018-04-15T17:11:31.503Z,19.3
2018-04-15T17:12:51.352Z,19.2
2018-04-15T17:14:11.251Z,19.2
2018-04-15T17:15:31.098Z,19.2
2018-04-15T17:16:50.963Z,18.8
2018-04-15T17:18:10.801Z,18.8
2018-04-15T17:19:35.676Z,19.1
2018-04-15T17:21:00.607Z,19.1
2018-04-15T17:22:20.486Z,18.9
2018-04-15T17:23:40.314Z,18.8
2018-04-15T17:25:02.669Z,18.8
2018-04-15T17:26:22.486Z,18.8
2018-04-15T17:27:44.860Z,18.7
2018-04-15T17:29:04.684Z,18.7
2018-04-15T17:30:24.552Z,18.7
2018-04-15T17:31:44.372Z,18.6
2018-04-15T17:33:06.743Z,18.5
2018-04-15T17:34:31.694Z,18.4
2018-04-15T17:35:51.607Z,18.5
2018-04-15T17:37:13.960Z,18.5
2018-04-15T17:38:38.862Z,18.4
2018-04-15T17:39:58.722Z,18.4
2018-04-15T17:41:21.151Z,18.3
2018-04-15T17:42:41.052Z,17.7
2018-04-15T17:44:05.993Z,17.6
2018-04-15T17:45:25.888Z,17.4
2018-04-15T17:46:48.239Z,17.1
2018-04-15T17:48:08.067Z,18.2
2018-04-15T17:49:27.894Z,18.4
2018-04-15T17:50:47.724Z,18.4
2018-04-15T17:52:07.545Z,18.4
2018-04-15T17:53:29.897Z,18.8
2018-04-15T17:54:54.835Z,18.9
2018-04-15T17:56:19.743Z,18.9
2018-04-15T17:57:39.591Z,18.9
2018-04-15T17:58:59.420Z,18.9
2018-04-15T18:00:19.297Z,18.9
2018-04-15T18:01:39.128Z,18.8
2018-04-15T18:03:01.509Z,18.7
2018-04-15T18:04:28.964Z,18.6
2018-04-15T18:06:03.987Z,18.6
2018-04-15T18:07:23.812Z,18.6
2018-04-15T18:08:43.633Z,18.6
2018-04-15T18:10:03.459Z,18.5
2018-04-15T18:11:28.347Z,18.5
2018-04-15T18:12:52.604Z,18.5
2018-04-15T18:14:14.719Z,18.5
2018-04-15T18:15:42.733Z,18.5
2018-04-15T18:17:04.501Z,18.5
2018-04-15T18:18:27.556Z,18.4
2018-04-15T18:19:51.052Z,18.4
2018-04-15T18:21:13.494Z,18.4